sensor_id;sensor_type;location;lat;lon;timestamp;pressure;altitude;pressure_sealevel;temperature;humidity
55675;BME280;41562;44.330;23.802;2022-11-04T00:01:53;100430.84;;;11.05;86.79
55675;BME280;41562;44.330;23.802;2022-11-04T00:04:23;100439.91;;;11.19;86.27
55675;BME280;41562;44.330;23.802;2022-11-04T00:06:51;100432.97;;;11.13;86.16
55675;BME280;41562;44.330;23.802;2022-11-04T00:09:22;100430.56;;;11.02;86.85
55675;BME280;41562;44.330;23.802;2022-11-04T00:11:50;100428.69;;;11.07;86.56
55675;BME280;41562;44.330;23.802;2022-11-04T00:14:17;100428.97;;;11.16;86.01
55675;BME280;41562;44.330;23.802;2022-11-04T00:16:45;100426.53;;;11.14;86.06
55675;BME280;41562;44.330;23.802;2022-11-04T00:19:12;100428.72;;;11.12;85.74
55675;BME280;41562;44.330;23.802;2022-11-04T00:21:39;100433.25;;;11.17;85.50
55675;BME280;41562;44.330;23.802;2022-11-04T00:24:09;100420.13;;;11.10;85.60
55675;BME280;41562;44.330;23.802;2022-11-04T00:26:37;100424.94;;;11.08;85.50
55675;BME280;41562;44.330;23.802;2022-11-04T00:29:04;100423.09;;;11.19;84.98
55675;BME280;41562;44.330;23.802;2022-11-04T00:31:31;100421.75;;;11.11;84.88
55675;BME280;41562;44.330;23.802;2022-11-04T00:33:58;100413.44;;;11.08;85.63
55675;BME280;41562;44.330;23.802;2022-11-04T00:36:26;100408.63;;;10.95;85.26
55675;BME280;41562;44.330;23.802;2022-11-04T00:38:53;100409.19;;;10.97;85.22
55675;BME280;41562;44.330;23.802;2022-11-04T00:41:20;100412.13;;;10.95;85.11
55675;BME280;41562;44.330;23.802;2022-11-04T00:43:49;100403.28;;;10.95;86.11
55675;BME280;41562;44.330;23.802;2022-11-04T00:46:16;100403.28;;;10.95;85.34
55675;BME280;41562;44.330;23.802;2022-11-04T00:48:43;100404.63;;;10.82;86.35
55675;BME280;41562;44.330;23.802;2022-11-04T00:51:11;100400.88;;;10.83;85.89
55675;BME280;41562;44.330;23.802;2022-11-04T00:53:39;100397.44;;;10.67;86.32
55675;BME280;41562;44.330;23.802;2022-11-04T00:56:06;100403.03;;;10.66;86.38
55675;BME280;41562;44.330;23.802;2022-11-04T00:58:34;100393.16;;;10.66;86.45
55675;BME280;41562;44.330;23.802;2022-11-04T01:01:09;100394.75;;;10.67;86.65
55675;BME280;41562;44.330;23.802;2022-11-04T01:03:37;100391.53;;;10.65;86.91
55675;BME280;41562;44.330;23.802;2022-11-04T01:06:05;100388.84;;;10.65;86.89
55675;BME280;41562;44.330;23.802;2022-11-04T01:08:32;100384.84;;;10.58;87.24
55675;BME280;41562;44.330;23.802;2022-11-04T01:11:01;100392.06;;;10.52;87.72
55675;BME280;41562;44.330;23.802;2022-11-04T01:13:30;100384.88;;;10.68;87.04
55675;BME280;41562;44.330;23.802;2022-11-04T01:16:00;100372.56;;;10.62;87.26
55675;BME280;41562;44.330;23.802;2022-11-04T01:18:28;100374.13;;;10.63;87.46
55675;BME280;41562;44.330;23.802;2022-11-04T01:21:04;100372.53;;;10.57;87.49
55675;BME280;41562;44.330;23.802;2022-11-04T01:23:33;100362.63;;;10.62;87.90
55675;BME280;41562;44.330;23.802;2022-11-04T01:26:07;100370.66;;;10.52;88.11
55675;BME280;41562;44.330;23.802;2022-11-04T01:28:34;100361.59;;;10.43;88.52
55675;BME280;41562;44.330;23.802;2022-11-04T01:31:13;100359.97;;;10.47;88.47
55675;BME280;41562;44.330;23.802;2022-11-04T01:33:42;100365.84;;;10.69;87.93
55675;BME280;41562;44.330;23.802;2022-11-04T01:36:10;100368.53;;;10.69;87.69
55675;BME280;41562;44.330;23.802;2022-11-04T01:38:37;100371.47;;;10.53;88.32
55675;BME280;41562;44.330;23.802;2022-11-04T01:41:06;100373.88;;;10.64;87.97
55675;BME280;41562;44.330;23.802;2022-11-04T01:43:56;100366.13;;;10.53;88.12
55675;BME280;41562;44.330;23.802;2022-11-04T01:46:45;100374.41;;;10.46;88.20
55675;BME280;41562;44.330;23.802;2022-11-04T01:51:50;100364.25;;;10.58;87.96
55675;BME280;41562;44.330;23.802;2022-11-04T01:54:20;100361.06;;;10.61;87.83
55675;BME280;41562;44.330;23.802;2022-11-04T01:56:48;100353.84;;;10.62;86.89
55675;BME280;41562;44.330;23.802;2022-11-04T01:59:21;100350.88;;;10.58;86.83
55675;BME280;41562;44.330;23.802;2022-11-04T02:01:50;100348.75;;;10.50;86.61
55675;BME280;41562;44.330;23.802;2022-11-04T02:04:18;100351.44;;;10.60;86.88
55675;BME280;41562;44.330;23.802;2022-11-04T02:06:46;100341.28;;;10.47;86.63
55675;BME280;41562;44.330;23.802;2022-11-04T02:09:16;100332.19;;;10.43;87.46
55675;BME280;41562;44.330;23.802;2022-11-04T02:11:43;100331.91;;;10.55;86.57
55675;BME280;41562;44.330;23.802;2022-11-04T02:14:11;100327.09;;;10.57;87.65
55675;BME280;41562;44.330;23.802;2022-11-04T02:16:47;100318.53;;;10.49;86.67
55675;BME280;41562;44.330;23.802;2022-11-04T02:22:22;100313.47;;;10.33;87.64
55675;BME280;41562;44.330;23.802;2022-11-04T02:28:13;100314.53;;;10.17;87.68
55675;BME280;41562;44.330;23.802;2022-11-04T02:30:49;100316.88;;;10.08;87.52
55675;BME280;41562;44.330;23.802;2022-11-04T02:33:38;100308.91;;;10.18;89.53
55675;BME280;41562;44.330;23.802;2022-11-04T02:44:11;100300.56;;;9.89;88.32
55675;BME280;41562;44.330;23.802;2022-11-04T02:49:28;100301.38;;;9.90;88.90
55675;BME280;41562;44.330;23.802;2022-11-04T02:52:07;100302.44;;;9.89;88.99
55675;BME280;41562;44.330;23.802;2022-11-04T02:54:46;100302.47;;;9.99;88.47
55675;BME280;41562;44.330;23.802;2022-11-04T02:57:20;100310.47;;;10.04;88.91
55675;BME280;41562;44.330;23.802;2022-11-04T02:59:52;100308.06;;;10.07;88.88
55675;BME280;41562;44.330;23.802;2022-11-04T03:02:44;100304.59;;;10.07;89.09
55675;BME280;41562;44.330;23.802;2022-11-04T03:05:18;100308.63;;;10.15;88.58
55675;BME280;41562;44.330;23.802;2022-11-04T03:07:48;100317.72;;;10.19;88.60
55675;BME280;41562;44.330;23.802;2022-11-04T03:10:23;100313.97;;;10.25;88.41
55675;BME280;41562;44.330;23.802;2022-11-04T03:13:24;100301.69;;;10.19;88.31
55675;BME280;41562;44.330;23.802;2022-11-04T03:16:00;100299.78;;;10.14;88.15
55675;BME280;41562;44.330;23.802;2022-11-04T03:21:39;100305.41;;;9.97;88.72
55675;BME280;41562;44.330;23.802;2022-11-04T03:24:09;100310.19;;;9.90;88.86
55675;BME280;41562;44.330;23.802;2022-11-04T03:26:44;100301.63;;;9.83;88.88
55675;BME280;41562;44.330;23.802;2022-11-04T03:29:28;100313.88;;;9.69;89.50
55675;BME280;41562;44.330;23.802;2022-11-04T03:34:44;100321.94;;;9.84;89.47
55675;BME280;41562;44.330;23.802;2022-11-04T03:37:12;100316.34;;;9.91;89.35
55675;BME280;41562;44.330;23.802;2022-11-04T03:39:39;100313.09;;;9.79;89.60
55675;BME280;41562;44.330;23.802;2022-11-04T03:42:10;100311.50;;;9.93;89.19
55675;BME280;41562;44.330;23.802;2022-11-04T03:44:37;100313.66;;;10.06;89.45
55675;BME280;41562;44.330;23.802;2022-11-04T03:47:05;100313.94;;;9.99;88.46
55675;BME280;41562;44.330;23.802;2022-11-04T03:49:32;100310.44;;;9.94;88.67
55675;BME280;41562;44.330;23.802;2022-11-04T03:51:59;100314.97;;;9.78;88.45
55675;BME280;41562;44.330;23.802;2022-11-04T03:54:27;100304.25;;;9.63;89.43
55675;BME280;41562;44.330;23.802;2022-11-04T04:08:41;100302.81;;;9.35;90.07
55675;BME280;41562;44.330;23.802;2022-11-04T04:11:25;100297.69;;;9.23;90.81
55675;BME280;41562;44.330;23.802;2022-11-04T04:14:08;100296.63;;;9.24;90.99
55675;BME280;41562;44.330;23.802;2022-11-04T04:16:44;100292.88;;;9.15;90.92
55675;BME280;41562;44.330;23.802;2022-11-04T04:19:17;100290.09;;;11.63;94.05
55675;BME280;41562;44.330;23.802;2022-11-04T04:21:54;100283.53;;;13.10;81.69
55675;BME280;41562;44.330;23.802;2022-11-04T04:24:29;100284.22;;;13.45;80.03
55675;BME280;41562;44.330;23.802;2022-11-04T04:26:59;100281.50;;;14.20;77.38
55675;BME280;41562;44.330;23.802;2022-11-04T04:29:28;100276.19;;;14.93;70.63
55675;BME280;41562;44.330;23.802;2022-11-04T04:31:56;100274.09;;;14.76;68.62
55675;BME280;41562;44.330;23.802;2022-11-04T04:34:28;100274.94;;;13.75;71.12
55675;BME280;41562;44.330;23.802;2022-11-04T04:39:48;100280.28;;;10.03;84.42
55675;BME280;41562;44.330;23.802;2022-11-04T04:42:17;100282.88;;;9.58;87.63
55675;BME280;41562;44.330;23.802;2022-11-04T04:44:45;100276.38;;;9.28;89.87
55675;BME280;41562;44.330;23.802;2022-11-04T04:47:18;100283.75;;;10.14;84.33
55675;BME280;41562;44.330;23.802;2022-11-04T04:52:18;100271.06;;;9.28;90.18
55675;BME280;41562;44.330;23.802;2022-11-04T04:54:46;100269.69;;;9.21;90.39
55675;BME280;41562;44.330;23.802;2022-11-04T04:57:13;100270.06;;;8.87;90.45
55675;BME280;41562;44.330;23.802;2022-11-04T04:59:41;100264.22;;;8.91;90.70
55675;BME280;41562;44.330;23.802;2022-11-04T05:02:08;100256.41;;;8.79;90.58
55675;BME280;41562;44.330;23.802;2022-11-04T05:04:36;100268.91;;;8.73;90.70
55675;BME280;41562;44.330;23.802;2022-11-04T05:07:04;100258.28;;;8.78;90.71
55675;BME280;41562;44.330;23.802;2022-11-04T05:09:31;100266.16;;;8.58;91.29
55675;BME280;41562;44.330;23.802;2022-11-04T05:11:59;100265.38;;;8.63;91.55
55675;BME280;41562;44.330;23.802;2022-11-04T05:14:28;100271.25;;;8.60;91.70
55675;BME280;41562;44.330;23.802;2022-11-04T05:16:56;100268.84;;;8.63;91.36
55675;BME280;41562;44.330;23.802;2022-11-04T05:19:24;100276.09;;;8.73;91.41
55675;BME280;41562;44.330;23.802;2022-11-04T05:21:52;100276.66;;;8.80;91.67
55675;BME280;41562;44.330;23.802;2022-11-04T05:24:20;100281.47;;;8.78;91.43
55675;BME280;41562;44.330;23.802;2022-11-04T05:26:47;100285.47;;;8.80;91.31
55675;BME280;41562;44.330;23.802;2022-11-04T05:29:15;100281.97;;;8.75;91.76
55675;BME280;41562;44.330;23.802;2022-11-04T05:31:43;100277.50;;;8.85;91.40
55675;BME280;41562;44.330;23.802;2022-11-04T05:34:11;100277.78;;;8.89;91.13
55675;BME280;41562;44.330;23.802;2022-11-04T05:52:18;100297.84;;;9.59;88.31
55675;BME280;41562;44.330;23.802;2022-11-04T05:55:18;100299.94;;;9.47;88.45
55675;BME280;41562;44.330;23.802;2022-11-04T06:02:19;100306.97;;;9.83;86.73
55675;BME280;41562;44.330;23.802;2022-11-04T06:09:45;100313.94;;;9.94;87.95
55675;BME280;41562;44.330;23.802;2022-11-04T06:12:47;100314.47;;;10.06;86.19
55675;BME280;41562;44.330;23.802;2022-11-04T06:23:10;100319.88;;;10.17;84.49
55675;BME280;41562;44.330;23.802;2022-11-04T06:25:45;100321.72;;;10.11;84.28
55675;BME280;41562;44.330;23.802;2022-11-04T06:28:59;100320.41;;;10.24;83.24
55675;BME280;41562;44.330;23.802;2022-11-04T06:31:34;100330.56;;;10.32;83.29
55675;BME280;41562;44.330;23.802;2022-11-04T06:34:06;100327.84;;;10.06;84.27
55675;BME280;41562;44.330;23.802;2022-11-04T06:36:38;100320.94;;;10.31;83.92
55675;BME280;41562;44.330;23.802;2022-11-04T06:39:13;100319.63;;;10.28;86.19
55675;BME280;41562;44.330;23.802;2022-11-04T06:41:48;100320.41;;;10.44;83.93
55675;BME280;41562;44.330;23.802;2022-11-04T06:44:18;100325.22;;;10.57;83.65
55675;BME280;41562;44.330;23.802;2022-11-04T06:46:47;100322.84;;;10.56;83.44
55675;BME280;41562;44.330;23.802;2022-11-04T06:49:18;100315.09;;;10.49;86.08
55675;BME280;41562;44.330;23.802;2022-11-04T06:51:46;100310.25;;;10.61;84.26
55675;BME280;41562;44.330;23.802;2022-11-04T06:54:16;100311.59;;;10.48;84.27
55675;BME280;41562;44.330;23.802;2022-11-04T06:56:50;100310.25;;;10.51;84.63
55675;BME280;41562;44.330;23.802;2022-11-04T06:59:22;100303.84;;;10.37;85.96
55675;BME280;41562;44.330;23.802;2022-11-04T07:01:50;100306.78;;;10.45;86.04
55675;BME280;41562;44.330;23.802;2022-11-04T07:04:19;100299.81;;;10.65;85.41
55675;BME280;41562;44.330;23.802;2022-11-04T07:06:51;100300.59;;;10.80;84.86
55675;BME280;41562;44.330;23.802;2022-11-04T07:12:09;100289.00;;;11.15;84.14
55675;BME280;41562;44.330;23.802;2022-11-04T07:14:39;100288.44;;;11.13;83.66
55675;BME280;41562;44.330;23.802;2022-11-04T07:17:07;100294.03;;;11.27;83.71
55675;BME280;41562;44.330;23.802;2022-11-04T07:19:36;100291.25;;;11.47;85.71
55675;BME280;41562;44.330;23.802;2022-11-04T07:22:04;100290.66;;;11.60;82.65
55675;BME280;41562;44.330;23.802;2022-11-04T07:24:53;100294.34;;;11.80;81.89
55675;BME280;41562;44.330;23.802;2022-11-04T07:27:40;100284.06;;;11.92;81.28
55675;BME280;41562;44.330;23.802;2022-11-04T07:31:27;100281.75;;;12.19;80.83
55675;BME280;41562;44.330;23.802;2022-11-04T07:38:31;100266.88;;;12.61;79.69
55675;BME280;41562;44.330;23.802;2022-11-04T07:41:00;100262.69;;;13.02;78.88
55675;BME280;41562;44.330;23.802;2022-11-04T07:43:29;100255.06;;;13.14;78.06
55675;BME280;41562;44.330;23.802;2022-11-04T07:46:06;100256.53;;;13.25;77.26
55675;BME280;41562;44.330;23.802;2022-11-04T07:48:37;100253.97;;;13.34;77.00
55675;BME280;41562;44.330;23.802;2022-11-04T07:51:06;100253.06;;;13.44;76.74
55675;BME280;41562;44.330;23.802;2022-11-04T07:53:34;100249.81;;;13.84;75.96
55675;BME280;41562;44.330;23.802;2022-11-04T07:56:06;100241.16;;;13.87;75.55
55675;BME280;41562;44.330;23.802;2022-11-04T07:58:34;100238.22;;;14.02;74.34
55675;BME280;41562;44.330;23.802;2022-11-04T08:01:24;100244.31;;;14.08;74.42
55675;BME280;41562;44.330;23.802;2022-11-04T08:03:56;100243.44;;;14.13;74.00
55675;BME280;41562;44.330;23.802;2022-11-04T08:06:25;100233.47;;;14.13;74.34
55675;BME280;41562;44.330;23.802;2022-11-04T08:08:56;100233.00;;;14.25;77.25
55675;BME280;41562;44.330;23.802;2022-11-04T08:11:26;100230.16;;;14.02;74.08
55675;BME280;41562;44.330;23.802;2022-11-04T08:13:57;100229.22;;;14.26;73.61
55675;BME280;41562;44.330;23.802;2022-11-04T08:16:34;100226.41;;;14.17;74.05
55675;BME280;41562;44.330;23.802;2022-11-04T08:19:05;100221.31;;;13.83;76.69
55675;BME280;41562;44.330;23.802;2022-11-04T08:21:33;100218.13;;;14.14;74.77
55675;BME280;41562;44.330;23.802;2022-11-04T08:24:04;100213.34;;;14.43;73.78
55675;BME280;41562;44.330;23.802;2022-11-04T08:26:33;100211.63;;;14.33;73.56
55675;BME280;41562;44.330;23.802;2022-11-04T08:43:06;100210.28;;;14.91;71.12
55675;BME280;41562;44.330;23.802;2022-11-04T08:45:42;100208.19;;;14.87;71.05
55675;BME280;41562;44.330;23.802;2022-11-04T08:48:24;100206.81;;;14.90;71.20
55675;BME280;41562;44.330;23.802;2022-11-04T08:50:57;100210.09;;;14.60;72.14
55675;BME280;41562;44.330;23.802;2022-11-04T08:53:31;100200.31;;;14.77;71.59
55675;BME280;41562;44.330;23.802;2022-11-04T08:55:59;100195.41;;;14.93;71.02
55675;BME280;41562;44.330;23.802;2022-11-04T08:59:26;100184.06;;;14.96;71.10
55675;BME280;41562;44.330;23.802;2022-11-04T09:02:18;100180.53;;;15.23;70.30
55675;BME280;41562;44.330;23.802;2022-11-04T09:09:39;100187.56;;;15.68;68.67
55675;BME280;41562;44.330;23.802;2022-11-04T09:12:11;100181.28;;;15.95;67.77
55675;BME280;41562;44.330;23.802;2022-11-04T09:15:15;100179.13;;;15.84;67.91
55675;BME280;41562;44.330;23.802;2022-11-04T09:17:45;100172.00;;;15.88;67.74
55675;BME280;41562;44.330;23.802;2022-11-04T09:20:16;100175.84;;;15.87;67.79
55675;BME280;41562;44.330;23.802;2022-11-04T09:22:44;100172.94;;;15.83;67.72
55675;BME280;41562;44.330;23.802;2022-11-04T09:25:12;100162.84;;;15.66;68.04
55675;BME280;41562;44.330;23.802;2022-11-04T09:27:43;100162.41;;;15.73;68.66
55675;BME280;41562;44.330;23.802;2022-11-04T09:30:13;100154.50;;;15.99;71.23
55675;BME280;41562;44.330;23.802;2022-11-04T09:32:41;100158.16;;;16.03;67.77
55675;BME280;41562;44.330;23.802;2022-11-04T09:35:29;100146.00;;;16.14;67.20
55675;BME280;41562;44.330;23.802;2022-11-04T09:38:06;100140.47;;;16.19;66.68
55675;BME280;41562;44.330;23.802;2022-11-04T09:40:48;100147.75;;;16.49;66.18
55675;BME280;41562;44.330;23.802;2022-11-04T09:43:36;100140.84;;;16.66;65.61
55675;BME280;41562;44.330;23.802;2022-11-04T09:46:11;100133.06;;;16.73;65.46
55675;BME280;41562;44.330;23.802;2022-11-04T09:48:46;100138.50;;;16.81;64.72
55675;BME280;41562;44.330;23.802;2022-11-04T09:51:20;100135.47;;;16.74;64.46
55675;BME280;41562;44.330;23.802;2022-11-04T09:54:22;100131.97;;;16.74;64.96
55675;BME280;41562;44.330;23.802;2022-11-04T10:00:08;100118.50;;;17.00;63.93
55675;BME280;41562;44.330;23.802;2022-11-04T10:02:40;100107.69;;;16.91;63.62
55675;BME280;41562;44.330;23.802;2022-11-04T10:08:03;100098.81;;;17.16;63.30
55675;BME280;41562;44.330;23.802;2022-11-04T10:18:53;100079.88;;;17.42;62.15
55675;BME280;41562;44.330;23.802;2022-11-04T10:24:19;100072.25;;;17.36;61.96
55675;BME280;41562;44.330;23.802;2022-11-04T10:29:46;100064.75;;;17.33;63.94
55675;BME280;41562;44.330;23.802;2022-11-04T10:32:24;100055.06;;;17.49;68.01
55675;BME280;41562;44.330;23.802;2022-11-04T10:34:57;100057.97;;;17.09;62.70
55675;BME280;41562;44.330;23.802;2022-11-04T10:37:26;100044.13;;;17.02;63.07
55675;BME280;41562;44.330;23.802;2022-11-04T10:40:26;100040.81;;;17.05;64.52
55675;BME280;41562;44.330;23.802;2022-11-04T10:42:57;100033.31;;;17.02;63.24
55675;BME280;41562;44.330;23.802;2022-11-04T10:45:35;100035.09;;;16.98;63.44
55675;BME280;41562;44.330;23.802;2022-11-04T10:48:20;100020.31;;;16.87;63.27
55675;BME280;41562;44.330;23.802;2022-11-04T10:50:54;100019.66;;;17.16;64.10
55675;BME280;41562;44.330;23.802;2022-11-04T10:53:28;100018.66;;;17.38;62.10
55675;BME280;41562;44.330;23.802;2022-11-04T10:56:09;100012.56;;;17.58;61.60
55675;BME280;41562;44.330;23.802;2022-11-04T10:58:45;100009.34;;;17.82;61.06
55675;BME280;41562;44.330;23.802;2022-11-04T11:01:28;100009.91;;;17.96;60.52
55675;BME280;41562;44.330;23.802;2022-11-04T11:03:57;99997.53;;;18.16;59.82
55675;BME280;41562;44.330;23.802;2022-11-04T11:06:33;100004.06;;;17.85;60.50
55675;BME280;41562;44.330;23.802;2022-11-04T11:11:45;99985.00;;;18.11;60.16
55675;BME280;41562;44.330;23.802;2022-11-04T11:17:15;99974.94;;;18.41;58.54
55675;BME280;41562;44.330;23.802;2022-11-04T11:20:00;99974.13;;;18.20;59.40
55675;BME280;41562;44.330;23.802;2022-11-04T11:22:35;99974.56;;;18.51;58.69
55675;BME280;41562;44.330;23.802;2022-11-04T11:25:29;99963.19;;;18.37;58.60
55675;BME280;41562;44.330;23.802;2022-11-04T11:28:02;99961.44;;;18.62;58.86
55675;BME280;41562;44.330;23.802;2022-11-04T11:30:38;99955.97;;;18.41;58.36
55675;BME280;41562;44.330;23.802;2022-11-04T11:33:25;99943.97;;;18.30;58.86
55675;BME280;41562;44.330;23.802;2022-11-04T11:36:01;99940.41;;;18.17;59.33
55675;BME280;41562;44.330;23.802;2022-11-04T11:38:32;99936.81;;;18.04;59.83
55675;BME280;41562;44.330;23.802;2022-11-04T11:41:08;99930.59;;;18.04;60.17
55675;BME280;41562;44.330;23.802;2022-11-04T11:43:53;99932.50;;;18.33;59.83
55675;BME280;41562;44.330;23.802;2022-11-04T11:46:23;99928.81;;;18.58;58.44
55675;BME280;41562;44.330;23.802;2022-11-04T11:48:53;99920.06;;;18.73;58.28
55675;BME280;41562;44.330;23.802;2022-11-04T11:51:25;99920.06;;;18.73;58.38
55675;BME280;41562;44.330;23.802;2022-11-04T11:54:21;99920.88;;;18.74;57.88
55675;BME280;41562;44.330;23.802;2022-11-04T11:57:01;99914.41;;;18.66;58.42
55675;BME280;41562;44.330;23.802;2022-11-04T11:59:50;99907.59;;;18.60;58.25
55675;BME280;41562;44.330;23.802;2022-11-04T12:02:40;99912.13;;;18.47;58.45
55675;BME280;41562;44.330;23.802;2022-11-04T12:05:10;99909.78;;;18.46;58.42
55675;BME280;41562;44.330;23.802;2022-11-04T12:20:39;99888.56;;;18.06;59.64
55675;BME280;41562;44.330;23.802;2022-11-04T12:29:08;99873.41;;;18.14;59.66
55675;BME280;41562;44.330;23.802;2022-11-04T12:38:06;99889.41;;;18.40;58.50
55675;BME280;41562;44.330;23.802;2022-11-04T12:40:43;99874.75;;;18.41;59.23
55675;BME280;41562;44.330;23.802;2022-11-04T12:43:50;99873.00;;;18.45;59.01
55675;BME280;41562;44.330;23.802;2022-11-04T12:46:44;99877.47;;;18.41;58.73
55675;BME280;41562;44.330;23.802;2022-11-04T12:52:17;99867.78;;;18.19;59.31
55675;BME280;41562;44.330;23.802;2022-11-04T13:00:18;99860.13;;;18.00;59.41
55675;BME280;41562;44.330;23.802;2022-11-04T13:06:04;99854.66;;;17.88;59.36
55675;BME280;41562;44.330;23.802;2022-11-04T13:08:43;99862.63;;;17.85;60.00
55675;BME280;41562;44.330;23.802;2022-11-04T13:11:22;99859.78;;;17.81;60.44
55675;BME280;41562;44.330;23.802;2022-11-04T13:14:19;99863.59;;;17.80;60.30
55675;BME280;41562;44.330;23.802;2022-11-04T13:16:50;99857.34;;;17.88;60.98
55675;BME280;41562;44.330;23.802;2022-11-04T13:19:21;99853.78;;;17.76;60.64
55675;BME280;41562;44.330;23.802;2022-11-04T13:21:50;99859.97;;;17.76;60.08
55675;BME280;41562;44.330;23.802;2022-11-04T13:24:25;99858.84;;;17.77;60.10
55675;BME280;41562;44.330;23.802;2022-11-04T13:26:57;99856.81;;;17.74;60.13
55675;BME280;41562;44.330;23.802;2022-11-04T13:29:26;99853.81;;;17.67;60.76
55675;BME280;41562;44.330;23.802;2022-11-04T13:37:51;99851.78;;;17.64;61.00
55675;BME280;41562;44.330;23.802;2022-11-04T13:40:25;99851.44;;;17.65;61.05
55675;BME280;41562;44.330;23.802;2022-11-04T13:45:48;99843.69;;;17.55;61.42
55675;BME280;41562;44.330;23.802;2022-11-04T13:48:23;99832.88;;;17.55;61.53
55675;BME280;41562;44.330;23.802;2022-11-04T13:51:07;99846.69;;;17.62;61.63
55675;BME280;41562;44.330;23.802;2022-11-04T13:53:44;99845.59;;;17.55;61.59
55675;BME280;41562;44.330;23.802;2022-11-04T13:56:31;99840.81;;;17.52;61.77
55675;BME280;41562;44.330;23.802;2022-11-04T14:01:44;99844.91;;;17.66;61.68
55675;BME280;41562;44.330;23.802;2022-11-04T14:06:59;99841.00;;;17.47;61.49
55675;BME280;41562;44.330;23.802;2022-11-04T14:14:38;99829.00;;;17.36;62.44
55675;BME280;41562;44.330;23.802;2022-11-04T14:25:34;99809.09;;;18.32;62.39
55675;BME280;41562;44.330;23.802;2022-11-04T14:30:51;99813.75;;;18.64;60.15
55675;BME280;41562;44.330;23.802;2022-11-04T14:33:34;99815.75;;;18.67;60.07
55675;BME280;41562;44.330;23.802;2022-11-04T14:36:24;99804.09;;;18.55;59.58
55675;BME280;41562;44.330;23.802;2022-11-04T14:41:55;99793.88;;;17.86;60.69
55675;BME280;41562;44.330;23.802;2022-11-04T14:52:36;99789.47;;;17.22;62.74
55675;BME280;41562;44.330;23.802;2022-11-04T14:55:11;99791.69;;;17.20;62.60
55675;BME280;41562;44.330;23.802;2022-11-04T14:57:42;99790.97;;;17.11;62.87
55675;BME280;41562;44.330;23.802;2022-11-04T15:00:26;99798.59;;;17.09;65.00
55675;BME280;41562;44.330;23.802;2022-11-04T15:06:10;99797.75;;;18.51;61.92
55675;BME280;41562;44.330;23.802;2022-11-04T15:11:28;99793.88;;;17.27;63.21
55675;BME280;41562;44.330;23.802;2022-11-04T15:13:56;99794.09;;;16.84;64.95
55675;BME280;41562;44.330;23.802;2022-11-04T15:16:27;99798.63;;;16.63;65.77
55675;BME280;41562;44.330;23.802;2022-11-04T15:18:57;99794.31;;;16.44;65.96
55675;BME280;41562;44.330;23.802;2022-11-04T15:21:25;99799.72;;;16.44;65.73
55675;BME280;41562;44.330;23.802;2022-11-04T15:23:54;99798.78;;;16.40;66.00
55675;BME280;41562;44.330;23.802;2022-11-04T15:26:24;99808.47;;;16.41;65.76
55675;BME280;41562;44.330;23.802;2022-11-04T15:29:02;99796.16;;;17.96;65.90
55675;BME280;41562;44.330;23.802;2022-11-04T15:31:34;99794.28;;;19.19;66.17
55675;BME280;41562;44.330;23.802;2022-11-04T15:34:05;99798.56;;;18.96;65.17
55675;BME280;41562;44.330;23.802;2022-11-04T15:36:41;99799.69;;;18.83;60.21
55675;BME280;41562;44.330;23.802;2022-11-04T15:39:13;99794.16;;;19.04;62.18
55675;BME280;41562;44.330;23.802;2022-11-04T15:41:44;99785.00;;;19.33;62.27
55675;BME280;41562;44.330;23.802;2022-11-04T15:44:21;99785.81;;;19.21;59.22
55675;BME280;41562;44.330;23.802;2022-11-04T15:47:00;99785.25;;;19.40;63.88
55675;BME280;41562;44.330;23.802;2022-11-04T15:49:30;99786.81;;;19.65;63.03
55675;BME280;41562;44.330;23.802;2022-11-04T15:52:13;99790.38;;;19.81;61.22
55675;BME280;41562;44.330;23.802;2022-11-04T15:54:46;99789.88;;;20.03;57.27
55675;BME280;41562;44.330;23.802;2022-11-04T15:57:24;99779.84;;;19.15;58.19
55675;BME280;41562;44.330;23.802;2022-11-04T16:00:00;99783.88;;;19.58;58.74
55675;BME280;41562;44.330;23.802;2022-11-04T16:02:34;99774.03;;;19.41;59.82
55675;BME280;41562;44.330;23.802;2022-11-04T16:05:15;99779.13;;;19.06;59.82
55675;BME280;41562;44.330;23.802;2022-11-04T16:07:47;99779.03;;;17.71;61.09
55675;BME280;41562;44.330;23.802;2022-11-04T16:10:30;99778.41;;;16.52;65.56
55675;BME280;41562;44.330;23.802;2022-11-04T16:15:40;99785.81;;;15.91;68.71
55675;BME280;41562;44.330;23.802;2022-11-04T16:20:58;99776.34;;;15.37;71.42
55675;BME280;41562;44.330;23.802;2022-11-04T16:23:27;99783.78;;;15.31;71.17
55675;BME280;41562;44.330;23.802;2022-11-04T16:28:32;99805.28;;;15.14;73.03
55675;BME280;41562;44.330;23.802;2022-11-04T16:33:49;99802.66;;;14.92;73.83
55675;BME280;41562;44.330;23.802;2022-11-04T16:36:17;99806.44;;;14.91;72.96
55675;BME280;41562;44.330;23.802;2022-11-04T16:38:44;99804.81;;;14.81;74.63
55675;BME280;41562;44.330;23.802;2022-11-04T16:41:12;99810.53;;;14.79;74.38
55675;BME280;41562;44.330;23.802;2022-11-04T16:43:41;99814.34;;;14.87;73.19
55675;BME280;41562;44.330;23.802;2022-11-04T16:46:10;99810.16;;;14.72;75.47
55675;BME280;41562;44.330;23.802;2022-11-04T16:48:38;99813.59;;;14.64;73.56
55675;BME280;41562;44.330;23.802;2022-11-04T16:51:05;99805.66;;;14.59;73.33
55675;BME280;41562;44.330;23.802;2022-11-04T16:53:32;99813.22;;;14.57;74.07
55675;BME280;41562;44.330;23.802;2022-11-04T16:56:00;99820.34;;;14.53;74.42
55675;BME280;41562;44.330;23.802;2022-11-04T16:58:30;99820.28;;;14.44;75.89
55675;BME280;41562;44.330;23.802;2022-11-04T17:01:02;99830.44;;;14.47;75.25
55675;BME280;41562;44.330;23.802;2022-11-04T17:03:32;99831.03;;;14.44;75.42